Time;durP1;ratioP1;P1;durP2;ratioP2;P2;SDS_P1;SDS_P2;PMS_P1;PMS_P2;Temp;Humidity;BMP_temperature;BMP_pressure;BME280_temperature;BME280_humidity;BME280_pressure;Samples;Min_cycle;Max_cycle;Signal;HPM_P1;HPM_P2
2021/06/24 00:01:08;;;;;;;14.33;12.97;;;15.60;99.90;;;;;;5000742;28;20473;-54
2021/06/24 00:03:37;;;;;;;15.93;14.50;;;15.60;99.90;;;;;;4994603;28;20473;-54
2021/06/24 00:06:06;;;;;;;16.63;15.17;;;15.60;99.90;;;;;;4998196;28;20467;-51
2021/06/24 00:08:33;;;;;;;17.53;15.20;;;15.60;99.90;;;;;;5000402;28;20810;-55
2021/06/24 00:11:02;;;;;;;14.90;13.47;;;15.60;99.90;;;;;;5000548;28;20472;-54
2021/06/24 00:13:29;;;;;;;16.57;14.30;;;15.70;99.90;;;;;;4999204;28;20932;-51
2021/06/24 00:15:57;;;;;;;15.77;14.23;;;15.70;99.90;;;;;;5000270;28;20501;-54
2021/06/24 00:18:24;;;;;;;14.63;13.50;;;15.70;99.90;;;;;;5000634;28;20778;-57
2021/06/24 00:20:52;;;;;;;14.67;13.27;;;15.70;99.90;;;;;;5000443;28;20469;-57
2021/06/24 00:23:20;;;;;;;15.43;13.90;;;15.60;99.90;;;;;;4999452;28;20469;-57
2021/06/24 00:25:48;;;;;;;14.33;13.03;;;15.60;99.90;;;;;;4995713;28;20507;-57
2021/06/24 00:28:16;;;;;;;14.83;13.33;;;15.60;99.90;;;;;;4999322;28;20472;-57
2021/06/24 00:30:44;;;;;;;13.40;12.00;;;15.60;99.90;;;;;;5000010;28;20527;-57
2021/06/24 00:33:11;;;;;;;14.60;13.30;;;15.60;99.90;;;;;;4993838;28;20476;-52
2021/06/24 00:35:38;;;;;;;16.27;14.23;;;15.60;99.90;;;;;;4999905;28;20866;-52
2021/06/24 00:38:05;;;;;;;16.20;14.67;;;15.60;99.90;;;;;;4999737;28;20472;-55
2021/06/24 00:40:36;;;;;;;14.23;12.80;;;15.60;99.90;;;;;;4995884;28;20490;-50
2021/06/24 00:43:05;;;;;;;13.57;12.30;;;15.60;99.90;;;;;;5000265;28;20443;-54
2021/06/24 00:45:33;;;;;;;14.00;12.80;;;15.60;99.90;;;;;;4999700;28;20496;-54
2021/06/24 00:48:00;;;;;;;14.93;13.17;;;15.60;99.90;;;;;;4999595;28;20480;-54
2021/06/24 00:50:27;;;;;;;14.17;12.87;;;15.60;99.90;;;;;;4999720;28;20490;-53
2021/06/24 00:52:55;;;;;;;14.80;13.30;;;15.60;99.90;;;;;;4999854;28;20468;-55
2021/06/24 00:55:39;;;;;;;15.63;13.67;;;15.60;99.90;;;;;;4999131;28;20515;-54
2021/06/24 00:58:09;;;;;;;15.17;13.60;;;15.50;99.90;;;;;;4999556;28;20555;-55
2021/06/24 01:00:36;;;;;;;15.30;13.63;;;15.60;99.90;;;;;;4999082;28;20750;-53
2021/06/24 01:03:03;;;;;;;14.77;13.37;;;15.60;99.90;;;;;;4999825;28;20476;-54
2021/06/24 01:05:31;;;;;;;14.23;13.03;;;15.60;99.90;;;;;;4992527;28;20456;-52
2021/06/24 01:07:58;;;;;;;17.80;13.90;;;15.50;99.90;;;;;;4996624;28;20483;-50
2021/06/24 01:10:25;;;;;;;15.70;14.40;;;15.50;99.90;;;;;;4998741;28;20464;-50
2021/06/24 01:12:53;;;;;;;14.03;12.83;;;15.60;99.90;;;;;;4999248;28;20493;-56
2021/06/24 01:15:23;;;;;;;15.87;14.57;;;15.50;99.90;;;;;;4998460;28;20465;-56
2021/06/24 01:17:50;;;;;;;16.00;13.60;;;15.50;99.90;;;;;;4999001;28;20475;-53
2021/06/24 01:20:22;;;;;;;15.33;13.80;;;15.50;99.90;;;;;;4998812;28;20472;-57
2021/06/24 01:22:49;;;;;;;16.20;14.50;;;15.50;99.90;;;;;;4999231;28;20468;-57
2021/06/24 01:25:18;;;;;;;14.87;13.43;;;15.50;99.90;;;;;;4998591;28;20472;-57
2021/06/24 01:27:45;;;;;;;15.80;14.10;;;15.60;99.90;;;;;;4999020;28;20501;-57
2021/06/24 01:30:13;;;;;;;14.60;13.40;;;15.60;99.90;;;;;;4998527;28;20476;-57
2021/06/24 01:32:41;;;;;;;17.13;15.40;;;15.60;99.90;;;;;;4998986;28;20476;-57
2021/06/24 01:35:09;;;;;;;16.37;14.90;;;15.50;99.90;;;;;;4998901;28;20480;-54
2021/06/24 01:37:36;;;;;;;16.20;14.37;;;15.50;99.90;;;;;;4998882;28;20468;-51
2021/06/24 01:40:06;;;;;;;16.20;14.60;;;15.40;99.90;;;;;;4998564;28;20555;-55
2021/06/24 01:42:35;;;;;;;16.23;14.77;;;15.40;99.90;;;;;;4998519;28;20469;-48
2021/06/24 01:45:02;;;;;;;16.37;14.93;;;15.40;99.90;;;;;;4992715;28;20824;-49
2021/06/24 01:47:29;;;;;;;16.23;14.83;;;15.40;99.90;;;;;;4998284;28;20508;-50
2021/06/24 01:49:57;;;;;;;18.43;16.73;;;15.30;99.90;;;;;;4998115;28;20465;-52
2021/06/24 01:52:24;;;;;;;17.20;15.60;;;15.30;99.90;;;;;;4998658;28;20473;-48
2021/06/24 01:54:51;;;;;;;16.00;14.57;;;15.10;99.90;;;;;;4998528;28;20878;-49
2021/06/24 01:57:18;;;;;;;18.13;16.53;;;15.10;99.90;;;;;;4998162;28;20507;-52
2021/06/24 01:59:47;;;;;;;17.27;15.57;;;15.10;99.90;;;;;;4993017;28;20476;-52
2021/06/24 02:02:16;;;;;;;18.93;16.80;;;15.00;99.90;;;;;;4998227;28;20551;-48
2021/06/24 02:04:44;;;;;;;18.90;17.00;;;15.00;99.90;;;;;;4990395;28;20469;-50
2021/06/24 02:07:11;;;;;;;19.97;18.03;;;14.90;99.90;;;;;;4997698;28;20524;-55
2021/06/24 02:09:41;;;;;;;21.27;18.33;;;14.90;99.90;;;;;;4998263;28;20491;-57
2021/06/24 02:12:09;;;;;;;19.10;16.60;;;14.80;99.90;;;;;;4997602;28;20482;-57
2021/06/24 02:14:37;;;;;;;20.03;17.87;;;14.80;99.90;;;;;;4997778;28;20890;-57
2021/06/24 02:17:05;;;;;;;18.97;17.13;;;14.70;99.90;;;;;;4997280;28;20461;-57
2021/06/24 02:19:32;;;;;;;18.60;16.90;;;14.70;99.90;;;;;;4997816;28;20928;-57
2021/06/24 02:21:59;;;;;;;20.37;18.43;;;14.70;99.90;;;;;;4996896;28;20533;-48
2021/06/24 02:24:26;;;;;;;18.97;17.27;;;14.70;99.90;;;;;;4997366;28;20469;-47
2021/06/24 02:26:53;;;;;;;20.90;18.30;;;14.70;99.90;;;;;;4996334;28;20499;-50
2021/06/24 02:29:20;;;;;;;19.57;17.57;;;14.80;99.90;;;;;;4997421;28;20473;-50
2021/06/24 02:31:48;;;;;;;19.97;18.03;;;14.80;99.90;;;;;;4998000;28;20750;-47
2021/06/24 02:34:18;;;;;;;19.27;17.57;;;14.80;99.90;;;;;;4997796;28;20874;-46
2021/06/24 02:36:45;;;;;;;20.57;18.37;;;14.80;99.90;;;;;;4997599;28;20890;-46
2021/06/24 02:39:12;;;;;;;21.70;18.10;;;14.90;99.90;;;;;;4997785;28;20563;-46
2021/06/24 02:41:39;;;;;;;20.57;18.63;;;14.90;99.90;;;;;;4997323;28;20496;-46
2021/06/24 02:44:06;;;;;;;18.33;16.73;;;14.90;99.90;;;;;;4998011;28;20814;-46
2021/06/24 02:46:34;;;;;;;19.43;17.43;;;15.00;99.90;;;;;;4997088;28;20976;-50
2021/06/24 02:49:01;;;;;;;20.77;18.67;;;15.00;99.90;;;;;;4997936;28;20472;-48
2021/06/24 02:51:29;;;;;;;19.40;17.50;;;15.00;99.90;;;;;;4999437;28;20475;-51
2021/06/24 02:53:56;;;;;;;20.17;18.23;;;15.10;99.90;;;;;;4997665;28;20555;-48
2021/06/24 02:56:24;;;;;;;20.97;18.20;;;15.10;99.90;;;;;;4997274;28;20461;-46
2021/06/24 02:58:51;;;;;;;21.37;19.13;;;15.10;99.90;;;;;;4997718;28;20473;-54
2021/06/24 03:01:18;;;;;;;21.03;18.83;;;15.10;99.90;;;;;;4997156;28;20777;-54
2021/06/24 03:40:50;;;;;;;25.20;22.50;;;14.60;99.90;;;;;;5014679;23;20991;-50
2021/06/24 04:21:07;;;;;;;25.70;23.27;;;15.00;99.90;;;;;;5188661;23;20474;-56
2021/06/24 04:23:34;;;;;;;24.37;21.90;;;15.00;99.90;;;;;;5000418;28;20468;-48
2021/06/24 04:26:01;;;;;;;24.93;22.33;;;15.00;99.90;;;;;;4999746;28;20472;-46
2021/06/24 04:28:28;;;;;;;24.23;22.00;;;14.90;99.90;;;;;;4999852;28;20461;-46
2021/06/24 04:30:55;;;;;;;24.43;22.03;;;14.90;99.90;;;;;;5000071;28;20473;-47
2021/06/24 04:33:23;;;;;;;25.70;23.40;;;14.90;99.90;;;;;;5000226;28;20450;-46
2021/06/24 04:35:52;;;;;;;26.70;22.17;;;15.00;99.90;;;;;;4999550;28;20469;-53
2021/06/24 04:38:21;;;;;;;26.13;23.10;;;15.00;99.90;;;;;;4999630;28;20464;-46
2021/06/24 04:40:48;;;;;;;25.57;22.87;;;15.00;99.90;;;;;;5000135;28;20758;-46
2021/06/24 04:43:15;;;;;;;23.70;21.40;;;15.20;99.90;;;;;;4999940;28;20485;-49
2021/06/24 04:45:42;;;;;;;23.20;21.10;;;15.20;99.90;;;;;;4999779;28;20469;-46
2021/06/24 04:48:10;;;;;;;25.57;23.07;;;15.20;99.90;;;;;;4999267;28;20475;-49
2021/06/24 04:50:37;;;;;;;26.23;23.70;;;15.30;99.90;;;;;;4997574;28;20765;-49
2021/06/24 04:53:05;;;;;;;27.10;22.40;;;15.30;99.90;;;;;;5000259;28;20469;-46
2021/06/24 04:55:38;;;;;;;26.70;23.80;;;15.30;99.90;;;;;;4999356;28;20472;-53
2021/06/24 04:58:05;;;;;;;25.73;23.30;;;15.40;99.90;;;;;;4999933;28;20944;-50
2021/06/24 05:00:36;;;;;;;25.53;23.03;;;15.30;99.90;;;;;;4999303;28;20464;-46
2021/06/24 05:03:10;;;;;;;26.07;23.47;;;15.30;99.90;;;;;;4994977;28;20512;-50
2021/06/24 05:05:37;;;;;;;26.17;23.50;;;15.40;99.90;;;;;;4991992;28;20549;-50
2021/06/24 05:08:10;;;;;;;27.53;24.63;;;15.40;99.90;;;;;;4998228;28;20855;-51
2021/06/24 05:10:39;;;;;;;28.00;25.30;;;15.40;99.90;;;;;;4993405;28;20924;-53
2021/06/24 05:13:06;;;;;;;28.73;24.80;;;15.40;99.90;;;;;;4999214;28;20463;-53
2021/06/24 05:15:39;;;;;;;29.03;25.87;;;15.40;99.90;;;;;;4998366;28;20465;-55
2021/06/24 05:18:08;;;;;;;28.53;25.80;;;15.50;99.90;;;;;;4999369;28;20563;-46
2021/06/24 05:20:35;;;;;;;27.57;25.00;;;15.40;99.90;;;;;;4999232;28;20515;-53
2021/06/24 05:23:03;;;;;;;28.33;25.67;;;15.50;99.90;;;;;;4995481;28;20458;-46
2021/06/24 05:25:32;;;;;;;26.80;23.97;;;15.60;99.90;;;;;;4998848;28;20711;-47
2021/06/24 05:28:03;;;;;;;26.80;24.00;;;15.70;99.90;;;;;;4997374;28;20493;-47
2021/06/24 05:30:31;;;;;;;26.63;24.10;;;15.70;99.90;;;;;;4993363;28;20480;-48
2021/06/24 05:32:58;;;;;;;27.67;25.03;;;15.80;99.90;;;;;;4997603;28;20493;-51
2021/06/24 05:35:25;;;;;;;25.53;22.93;;;15.90;99.90;;;;;;4997699;28;20746;-45
2021/06/24 05:37:55;;;;;;;26.50;23.90;;;16.00;99.90;;;;;;4998219;28;20861;-46
2021/06/24 05:40:22;;;;;;;25.03;22.73;;;16.20;99.90;;;;;;4998502;28;20468;-45
2021/06/24 05:42:52;;;;;;;26.10;23.73;;;16.20;99.90;;;;;;4999091;28;20508;-52
2021/06/24 05:45:28;;;;;;;24.97;22.70;;;16.20;99.90;;;;;;4997556;28;20512;-50
2021/06/24 05:47:55;;;;;;;26.97;24.40;;;16.40;99.90;;;;;;4998535;28;20781;-47
2021/06/24 05:50:23;;;;;;;26.63;24.20;;;16.50;99.90;;;;;;4997123;28;20468;-50
2021/06/24 05:52:50;;;;;;;24.93;22.70;;;16.50;99.90;;;;;;4996747;28;21014;-55
2021/06/24 05:55:18;;;;;;;24.20;22.20;;;16.60;99.90;;;;;;4997096;28;20775;-46
2021/06/24 05:57:47;;;;;;;25.50;22.90;;;16.80;99.90;;;;;;4997290;28;20886;-46
2021/06/24 06:00:14;;;;;;;24.97;22.67;;;16.80;99.90;;;;;;4996352;28;20468;-48
2021/06/24 06:02:43;;;;;;;24.67;22.40;;;16.80;99.90;;;;;;4994711;28;20477;-50
2021/06/24 06:05:14;;;;;;;23.80;21.47;;;16.70;99.90;;;;;;4992877;28;20799;-48
2021/06/24 06:07:43;;;;;;;24.80;22.40;;;16.80;99.90;;;;;;4997724;28;20660;-46
2021/06/24 06:10:13;;;;;;;24.63;22.40;;;16.80;99.90;;;;;;4997502;28;20475;-49
2021/06/24 06:12:40;;;;;;;23.30;21.27;;;16.80;99.90;;;;;;4997508;28;20465;-49
2021/06/24 06:15:09;;;;;;;22.47;20.00;;;16.90;99.90;;;;;;4998520;28;20480;-50
2021/06/24 06:17:36;;;;;;;23.60;21.20;;;17.10;99.90;;;;;;4997420;28;20472;-48
2021/06/24 06:20:08;;;;;;;23.90;21.60;;;17.20;99.90;;;;;;4997912;28;20443;-47
2021/06/24 06:22:35;;;;;;;22.07;19.97;;;17.10;99.90;;;;;;4995706;28;20463;-50
2021/06/24 06:25:05;;;;;;;22.83;20.53;;;17.10;99.90;;;;;;4998346;28;20483;-47
2021/06/24 06:27:32;;;;;;;24.40;22.03;;;16.90;99.90;;;;;;4998163;28;20987;-48
2021/06/24 06:29:59;;;;;;;23.17;20.80;;;16.80;99.90;;;;;;4997089;28;20488;-47
2021/06/24 06:32:26;;;;;;;21.57;19.37;;;16.80;99.90;;;;;;4998082;28;20476;-51
2021/06/24 06:34:53;;;;;;;24.23;20.30;;;16.60;99.90;;;;;;4997927;28;20881;-49
2021/06/24 06:37:22;;;;;;;21.43;19.00;;;16.70;99.90;;;;;;4998463;28;20848;-50
2021/06/24 06:39:51;;;;;;;21.67;19.50;;;16.70;99.90;;;;;;4997463;28;20563;-46
2021/06/24 06:42:18;;;;;;;23.00;20.70;;;16.70;99.90;;;;;;4998403;28;20487;-46
2021/06/24 06:44:50;;;;;;;23.67;21.00;;;16.90;99.90;;;;;;4998086;28;20488;-46
2021/06/24 06:47:19;;;;;;;21.73;19.53;;;17.00;99.90;;;;;;4989793;28;20501;-46
2021/06/24 06:49:46;;;;;;;22.43;20.03;;;17.20;99.90;;;;;;4996315;28;20465;-46
2021/06/24 06:52:13;;;;;;;24.63;20.67;;;17.40;99.90;;;;;;4996006;28;20488;-46
2021/06/24 06:54:42;;;;;;;21.60;19.47;;;17.70;99.90;;;;;;4996979;28;20469;-47
2021/06/24 06:57:20;;;;;;;23.60;19.33;;;17.90;99.90;;;;;;4997682;28;20461;-46
2021/06/24 06:59:50;;;;;;;22.93;20.60;;;18.10;99.90;;;;;;4997412;28;20450;-47
2021/06/24 07:02:17;;;;;;;20.73;18.63;;;18.40;99.90;;;;;;4997720;28;20473;-45
2021/06/24 07:04:44;;;;;;;22.77;20.50;;;18.40;99.90;;;;;;4979694;28;20475;-46
2021/06/24 07:07:11;;;;;;;21.53;19.67;;;18.50;99.90;;;;;;4997652;28;20529;-46
2021/06/24 07:09:39;;;;;;;21.37;19.57;;;18.60;99.90;;;;;;4997290;28;20473;-46
2021/06/24 07:12:11;;;;;;;20.97;19.10;;;18.70;99.90;;;;;;4998209;28;20448;-49
2021/06/24 07:14:38;;;;;;;22.00;20.10;;;18.80;99.90;;;;;;4997054;28;20472;-46
2021/06/24 07:17:05;;;;;;;21.23;19.33;;;18.50;99.90;;;;;;4998061;28;20469;-47
2021/06/24 07:19:32;;;;;;;21.73;19.70;;;18.60;99.90;;;;;;4997533;28;20789;-46
2021/06/24 07:21:59;;;;;;;23.00;20.70;;;18.70;99.90;;;;;;4997446;28;20495;-52
2021/06/24 07:24:26;;;;;;;22.27;20.10;;;18.40;99.90;;;;;;4996398;28;20465;-50
2021/06/24 07:26:54;;;;;;;22.37;20.00;;;18.00;99.90;;;;;;4997738;28;20464;-46
2021/06/24 07:29:22;;;;;;;22.93;20.67;;;17.80;99.90;;;;;;4998054;28;20587;-49
2021/06/24 07:31:49;;;;;;;21.50;19.70;;;17.90;99.90;;;;;;4994048;28;20477;-49
2021/06/24 07:34:17;;;;;;;21.17;19.17;;;17.90;99.90;;;;;;4993580;28;20481;-52
2021/06/24 07:36:45;;;;;;;20.37;18.47;;;17.90;99.90;;;;;;4994530;28;20472;-46
2021/06/24 07:39:12;;;;;;;21.10;18.80;;;18.10;99.90;;;;;;4993529;28;20469;-53
2021/06/24 07:41:40;;;;;;;21.57;19.40;;;18.20;99.90;;;;;;4992725;28;20707;-46
2021/06/24 07:44:07;;;;;;;21.63;19.73;;;18.30;99.90;;;;;;4995777;28;20468;-47
2021/06/24 07:46:35;;;;;;;21.23;19.30;;;18.40;99.90;;;;;;4996220;28;20564;-49
2021/06/24 07:49:02;;;;;;;19.80;17.30;;;18.40;99.90;;;;;;4997226;28;20504;-46
2021/06/24 07:51:29;;;;;;;20.40;18.40;;;18.40;99.90;;;;;;4996554;28;20465;-47
2021/06/24 07:53:57;;;;;;;20.60;18.50;;;18.60;99.90;;;;;;4996837;28;20484;-47
2021/06/24 07:56:24;;;;;;;20.23;18.13;;;18.70;99.90;;;;;;4997190;28;20469;-46
2021/06/24 07:59:00;;;;;;;22.83;19.40;;;18.60;99.90;;;;;;4996950;28;20908;-45
2021/06/24 08:01:27;;;;;;;24.60;18.93;;;19.00;99.90;;;;;;4992118;28;20912;-51
2021/06/24 08:03:55;;;;;;;20.97;18.67;;;19.10;99.90;;;;;;4988848;28;20909;-46
2021/06/24 08:06:25;;;;;;;20.47;18.43;;;19.30;99.90;;;;;;4996593;28;20471;-47
2021/06/24 08:08:52;;;;;;;19.90;18.00;;;19.30;99.90;;;;;;4996844;28;20559;-48
2021/06/24 08:11:23;;;;;;;18.20;16.30;;;19.40;99.90;;;;;;5000368;28;20469;-49
2021/06/24 08:13:50;;;;;;;20.60;16.63;;;19.60;99.90;;;;;;5000366;28;20469;-53
2021/06/24 08:16:17;;;;;;;17.87;16.40;;;19.40;99.90;;;;;;5000435;28;20871;-47
2021/06/24 08:18:44;;;;;;;19.10;17.40;;;19.20;99.90;;;;;;5000244;28;20562;-46
2021/06/24 08:21:13;;;;;;;17.50;15.87;;;19.40;99.90;;;;;;4999335;28;20514;-46
2021/06/24 08:23:40;;;;;;;18.60;16.80;;;19.80;99.90;;;;;;5000244;28;20468;-46
2021/06/24 08:26:07;;;;;;;17.60;16.10;;;20.10;99.90;;;;;;5000408;28;20512;-46
2021/06/24 08:28:34;;;;;;;19.23;17.47;;;20.40;99.90;;;;;;5000464;28;20596;-47
2021/06/24 08:31:01;;;;;;;18.60;17.00;;;20.10;99.90;;;;;;5000502;28;20472;-47
2021/06/24 08:33:28;;;;;;;17.87;16.17;;;19.70;99.90;;;;;;5000158;28;20888;-49
2021/06/24 08:35:55;;;;;;;19.37;14.80;;;19.60;99.90;;;;;;5000462;28;20893;-51
2021/06/24 08:38:26;;;;;;;21.70;16.40;;;19.50;99.90;;;;;;4999598;28;20440;-49
2021/06/24 08:40:56;;;;;;;20.30;18.00;;;19.50;99.90;;;;;;4999715;28;20475;-49
2021/06/24 08:43:23;;;;;;;18.80;17.20;;;19.40;99.90;;;;;;4999838;28;20514;-46
2021/06/24 08:45:50;;;;;;;18.07;16.40;;;19.60;99.90;;;;;;4999798;28;20450;-47
2021/06/24 08:48:20;;;;;;;19.53;16.13;;;19.40;99.90;;;;;;5000270;28;20496;-46
2021/06/24 08:50:49;;;;;;;17.90;16.50;;;19.50;99.90;;;;;;4999514;28;20464;-53
2021/06/24 08:53:20;;;;;;;18.67;16.70;;;19.70;99.90;;;;;;4999645;28;20504;-48
2021/06/24 08:55:53;;;;;;;19.33;17.43;;;19.90;99.90;;;;;;4999146;28;20468;-46
2021/06/24 08:58:24;;;;;;;18.50;16.83;;;19.90;99.90;;;;;;4999743;28;20461;-49
2021/06/24 09:00:51;;;;;;;19.20;17.23;;;19.80;99.90;;;;;;4999241;28;20439;-47
2021/06/24 09:03:20;;;;;;;19.47;17.53;;;19.70;99.90;;;;;;4992067;28;20477;-47
2021/06/24 09:05:52;;;;;;;18.53;16.63;;;19.60;99.90;;;;;;4992959;28;20472;-46
2021/06/24 09:08:37;;;;;;;17.47;15.97;;;19.50;99.90;;;;;;4995519;28;20497;-49
2021/06/24 09:11:16;;;;;;;19.73;17.70;;;19.80;99.90;;;;;;4993626;28;20490;-48
2021/06/24 09:13:46;;;;;;;18.37;16.77;;;19.90;99.90;;;;;;4996144;28;20526;-48
2021/06/24 09:16:22;;;;;;;19.80;18.00;;;19.70;99.90;;;;;;4998993;28;20470;-47
2021/06/24 09:18:49;;;;;;;17.93;16.40;;;20.00;99.90;;;;;;4999433;28;20534;-46
2021/06/24 09:21:22;;;;;;;19.57;17.90;;;20.40;99.90;;;;;;4998748;28;20972;-44
2021/06/24 09:23:51;;;;;;;17.00;15.60;;;20.50;99.90;;;;;;4998356;28;20533;-46
2021/06/24 10:03:18;;;;;;;19.03;17.50;;;20.50;99.90;;;;;;3048861;23;21221;-58
2021/06/24 10:05:49;;;;;;;18.93;16.97;;;20.40;99.90;;;;;;4991460;28;20463;-53
2021/06/24 10:08:16;;;;;;;20.60;18.60;;;20.50;99.90;;;;;;4997369;28;20497;-55
2021/06/24 10:10:44;;;;;;;20.87;19.07;;;20.90;99.90;;;;;;4997882;28;20466;-56
2021/06/24 10:13:17;;;;;;;19.37;17.80;;;21.10;99.90;;;;;;4996794;28;20447;-54
2021/06/24 10:15:49;;;;;;;19.80;17.83;;;21.30;99.90;;;;;;4996908;28;20488;-47
2021/06/24 10:18:20;;;;;;;20.67;18.67;;;21.30;99.90;;;;;;4997840;28;20506;-52
2021/06/24 10:20:48;;;;;;;22.73;19.43;;;21.00;99.90;;;;;;4998025;28;20920;-48
2021/06/24 10:23:19;;;;;;;22.37;20.37;;;20.60;99.90;;;;;;4997201;28;20469;-46
2021/06/24 10:25:50;;;;;;;21.87;19.77;;;20.40;99.90;;;;;;4997781;28;20451;-52
2021/06/24 11:05:18;;;;;;;18.37;16.77;;;20.90;99.90;;;;;;5380261;23;20904;-51
2021/06/24 11:07:47;;;;;;;19.27;17.40;;;21.10;99.90;;;;;;4991041;28;20453;-47
2021/06/24 11:10:26;;;;;;;21.20;17.73;;;21.40;99.90;;;;;;4994931;28;20475;-47
2021/06/24 12:04:29;;;;;;;22.77;17.57;;;20.30;99.90;;;;;;4988153;28;20452;-49
2021/06/24 12:07:01;;;;;;;19.23;17.53;;;20.20;99.90;;;;;;4999416;28;20468;-46
2021/06/24 12:09:29;;;;;;;16.40;15.00;;;20.20;99.90;;;;;;4999193;28;20503;-46
2021/06/24 12:11:58;;;;;;;17.70;15.83;;;20.30;99.90;;;;;;4998626;28;20476;-50
2021/06/24 12:14:29;;;;;;;17.57;15.80;;;20.40;99.90;;;;;;4998802;28;20468;-53
2021/06/24 12:17:21;;;;;;;21.20;17.50;;;20.40;99.90;;;;;;4993192;28;20476;-45
2021/06/24 12:19:57;;;;;;;18.97;17.20;;;20.30;99.90;;;;;;4992327;28;20841;-45
2021/06/24 12:22:42;;;;;;;17.97;16.13;;;20.30;99.90;;;;;;4995777;28;20468;-48
2021/06/24 12:25:12;;;;;;;18.50;16.90;;;20.10;99.90;;;;;;4994234;28;20483;-45
2021/06/24 12:27:41;;;;;;;21.53;17.13;;;20.00;99.90;;;;;;4994458;28;20472;-45
2021/06/24 12:30:12;;;;;;;19.17;17.47;;;20.00;99.90;;;;;;4998524;28;20503;-48
2021/06/24 12:32:45;;;;;;;19.73;17.80;;;20.00;99.90;;;;;;4999842;28;20492;-46
2021/06/24 12:35:12;;;;;;;17.63;16.07;;;19.90;99.90;;;;;;4999814;28;20475;-51
2021/06/24 12:37:45;;;;;;;20.50;17.77;;;20.00;99.90;;;;;;4999760;28;20527;-45
2021/06/24 12:40:16;;;;;;;17.77;16.00;;;20.00;99.90;;;;;;4999384;28;20460;-47
2021/06/24 12:42:45;;;;;;;22.03;17.33;;;20.00;99.90;;;;;;4999961;28;20471;-45
2021/06/24 12:45:17;;;;;;;19.43;17.60;;;20.10;99.90;;;;;;4999391;28;20890;-48
2021/06/24 12:47:49;;;;;;;19.83;17.93;;;20.20;99.90;;;;;;4999608;28;20477;-48
2021/06/24 12:50:19;;;;;;;20.20;18.30;;;20.10;99.90;;;;;;4999624;28;20511;-46
2021/06/24 12:52:53;;;;;;;19.83;18.10;;;20.20;99.90;;;;;;4998833;28;20448;-47
2021/06/24 12:55:42;;;;;;;20.53;18.63;;;20.20;99.90;;;;;;4998545;28;20469;-53
2021/06/24 12:58:13;;;;;;;20.60;18.57;;;20.10;99.90;;;;;;4998894;28;20465;-49
2021/06/24 13:00:50;;;;;;;21.13;19.20;;;19.90;99.90;;;;;;4994100;28;20480;-48
2021/06/24 13:03:17;;;;;;;19.10;17.00;;;19.50;99.90;;;;;;4990507;28;20472;-48
2021/06/24 13:05:44;;;;;;;19.10;17.37;;;19.60;99.90;;;;;;4996006;28;20505;-46
2021/06/24 13:08:14;;;;;;;19.13;17.13;;;19.80;99.90;;;;;;4998795;28;20961;-48
2021/06/24 13:10:47;;;;;;;17.30;15.40;;;19.90;99.90;;;;;;4999170;28;20479;-51
2021/06/24 13:13:31;;;;;;;17.17;15.40;;;19.80;99.90;;;;;;4998613;28;20552;-45
2021/06/24 13:15:59;;;;;;;19.50;17.53;;;20.20;99.90;;;;;;4993277;28;20465;-45
2021/06/24 13:18:26;;;;;;;17.47;15.97;;;20.20;99.90;;;;;;4998721;28;20477;-48
2021/06/24 13:21:01;;;;;;;18.17;16.53;;;20.20;99.90;;;;;;4998757;28;20479;-47
2021/06/24 13:23:37;;;;;;;17.63;16.07;;;20.40;99.90;;;;;;4999212;28;20468;-52
2021/06/24 13:26:25;;;;;;;19.10;17.20;;;20.60;99.90;;;;;;4999170;28;20460;-48
2021/06/24 13:28:57;;;;;;;18.17;16.57;;;20.60;99.90;;;;;;4991490;28;20929;-51
2021/06/24 13:31:27;;;;;;;15.87;14.23;;;20.50;99.90;;;;;;4998070;28;20920;-46
2021/06/24 13:34:01;;;;;;;15.50;14.20;;;20.70;99.90;;;;;;4998136;28;20749;-48
2021/06/24 13:36:30;;;;;;;17.57;15.97;;;20.70;99.90;;;;;;4998114;28;20475;-48
2021/06/24 13:39:07;;;;;;;17.63;15.93;;;20.90;99.90;;;;;;5274367;23;21577;-49
2021/06/24 13:41:35;;;;;;;16.83;14.90;;;20.90;99.90;;;;;;4997673;28;20879;-50
2021/06/24 13:44:08;;;;;;;15.03;13.67;;;21.00;99.90;;;;;;4997847;28;20465;-50
2021/06/24 13:49:21;;;;;;;16.33;13.60;;;21.40;99.90;;;;;;5138514;23;20492;-46
2021/06/24 13:51:50;;;;;;;13.97;12.67;;;21.10;99.90;;;;;;4997987;28;20472;-46
2021/06/24 13:54:20;;;;;;;14.07;12.63;;;21.00;99.90;;;;;;4998377;28;20952;-45
2021/06/24 13:56:48;;;;;;;13.33;12.03;;;21.10;99.90;;;;;;4998470;28;20952;-45
2021/06/24 13:59:15;;;;;;;15.30;13.80;;;21.20;99.90;;;;;;4997891;28;20464;-48
2021/06/24 14:01:44;;;;;;;16.10;13.37;;;21.10;99.90;;;;;;4997998;28;20476;-45
2021/06/24 14:04:14;;;;;;;13.60;12.30;;;21.20;99.90;;;;;;4986286;28;20984;-46
2021/06/24 14:06:41;;;;;;;13.63;12.17;;;21.20;99.90;;;;;;4997077;28;20885;-45
2021/06/24 14:09:11;;;;;;;16.40;13.20;;;21.20;99.90;;;;;;4997775;28;20492;-47
2021/06/24 14:11:43;;;;;;;14.60;13.07;;;21.30;99.90;;;;;;4996848;28;20442;-44
2021/06/24 14:14:10;;;;;;;14.93;13.37;;;21.20;99.90;;;;;;4997312;28;20468;-47
2021/06/24 14:16:38;;;;;;;13.30;11.93;;;21.10;99.90;;;;;;4997113;28;20464;-46
2021/06/24 14:19:06;;;;;;;14.13;12.83;;;21.40;99.90;;;;;;4997081;28;20504;-46
2021/06/24 14:21:36;;;;;;;12.43;11.20;;;21.50;99.90;;;;;;4997286;28;20465;-48
2021/06/24 14:24:04;;;;;;;11.67;10.57;;;21.70;99.90;;;;;;4997683;28;20623;-45
2021/06/24 14:26:33;;;;;;;12.60;11.30;;;21.70;99.90;;;;;;4997395;28;20469;-47
2021/06/24 14:29:06;;;;;;;13.23;11.93;;;21.80;99.90;;;;;;4997368;28;20496;-48
2021/06/24 14:31:33;;;;;;;11.43;10.23;;;21.90;99.90;;;;;;4998000;28;20469;-45
2021/06/24 14:34:04;;;;;;;14.20;11.00;;;22.00;99.90;;;;;;4998081;28;20480;-45
2021/06/24 14:36:31;;;;;;;12.23;11.23;;;22.30;99.90;;;;;;4997257;28;20473;-46
2021/06/24 14:39:01;;;;;;;12.27;11.07;;;22.20;99.80;;;;;;4998009;28;20464;-45
2021/06/24 14:41:29;;;;;;;13.10;11.50;;;22.20;99.90;;;;;;4997355;28;20790;-45
2021/06/24 14:44:01;;;;;;;13.57;12.37;;;22.50;99.80;;;;;;4997250;28;20547;-45
2021/06/24 14:46:29;;;;;;;13.53;12.20;;;22.70;99.30;;;;;;4996843;28;20475;-46
2021/06/24 14:48:57;;;;;;;12.67;11.47;;;23.10;97.80;;;;;;4990643;28;20470;-45
2021/06/24 14:51:24;;;;;;;13.07;11.77;;;23.50;95.70;;;;;;4989964;28;20579;-49
2021/06/24 14:53:54;;;;;;;15.43;11.90;;;24.10;94.50;;;;;;4990038;28;20480;-46
2021/06/24 14:56:21;;;;;;;14.03;12.40;;;24.30;93.40;;;;;;4990381;28;20469;-49
2021/06/24 14:58:49;;;;;;;12.77;11.63;;;24.60;91.70;;;;;;4995573;28;20484;-46
2021/06/24 15:01:18;;;;;;;13.00;11.80;;;24.60;90.00;;;;;;4995436;28;20513;-45
2021/06/24 15:03:46;;;;;;;13.00;11.90;;;24.60;90.30;;;;;;4986411;28;20475;-48
2021/06/24 15:06:14;;;;;;;14.00;12.80;;;24.90;90.10;;;;;;4989955;28;20462;-49
2021/06/24 15:08:41;;;;;;;12.67;11.57;;;24.80;88.80;;;;;;4995752;28;20864;-47
2021/06/24 15:11:10;;;;;;;13.27;11.93;;;24.90;89.60;;;;;;4995859;28;20500;-46
2021/06/24 15:13:38;;;;;;;11.50;10.53;;;25.00;88.90;;;;;;4995086;28;20469;-50
2021/06/24 15:53:26;;;;;;;16.63;15.23;;;23.00;92.30;;;;;;2554007;23;20492;-52
2021/06/24 15:55:55;;;;;;;13.83;12.47;;;23.30;90.90;;;;;;4987011;28;20469;-48
2021/06/24 15:58:23;;;;;;;18.10;16.40;;;23.30;91.70;;;;;;4987612;28;20505;-46
2021/06/24 16:00:50;;;;;;;16.20;14.77;;;23.20;91.50;;;;;;4981508;28;20473;-53
2021/06/24 16:03:18;;;;;;;16.00;14.70;;;23.10;91.30;;;;;;4983675;28;20510;-46
2021/06/24 16:05:46;;;;;;;20.27;15.50;;;23.00;92.50;;;;;;4979935;28;20476;-46
2021/06/24 16:08:14;;;;;;;15.47;14.07;;;23.30;91.40;;;;;;4985788;28;20560;-46
2021/06/24 16:10:43;;;;;;;16.83;15.47;;;23.20;92.20;;;;;;4988955;28;20479;-49
2021/06/24 16:13:10;;;;;;;18.20;16.73;;;22.80;92.30;;;;;;4980044;28;20469;-50
2021/06/24 16:15:37;;;;;;;20.10;18.37;;;22.80;92.50;;;;;;4992092;28;20530;-47
2021/06/24 16:18:04;;;;;;;16.53;15.10;;;22.90;92.60;;;;;;4997292;28;20471;-48
2021/06/24 16:20:35;;;;;;;19.17;17.37;;;22.90;93.40;;;;;;4989285;28;20462;-46
2021/06/24 16:23:04;;;;;;;17.33;15.87;;;22.80;92.80;;;;;;4981368;28;20444;-46
2021/06/24 16:25:32;;;;;;;16.40;14.87;;;22.90;94.00;;;;;;4970553;28;20558;-46
2021/06/24 16:28:02;;;;;;;17.00;15.30;;;22.90;92.70;;;;;;4976036;28;20454;-49
2021/06/24 16:30:29;;;;;;;17.10;15.77;;;22.90;93.60;;;;;;4990565;28;20492;-54
2021/06/24 16:32:59;;;;;;;16.23;14.83;;;22.70;93.00;;;;;;4993486;28;20969;-56
2021/06/24 16:35:30;;;;;;;18.30;16.90;;;22.70;94.40;;;;;;4998982;28;20469;-50
2021/06/24 16:38:00;;;;;;;19.20;17.47;;;22.70;94.30;;;;;;4999249;28;20893;-47